Time;durP1;ratioP1;P1;durP2;ratioP2;P2;SDS_P1;SDS_P2;PMS_P1;PMS_P2;Temp;Humidity;BMP_temperature;BMP_pressure;BME280_temperature;BME280_humidity;BME280_pressure;Samples;Min_cycle;Max_cycle;Signal;HPM_P1;HPM_P2
2022/04/19 00:00:37;;;;;;;;;;;;;;;;;;5044738;28;19921;-80
2022/04/19 00:03:04;;;;;;;;;;;;;;;;;;5029699;28;19952;-80
2022/04/19 00:05:30;;;;;;;;;;;;;;;;;;5029353;28;19952;-80
2022/04/19 00:07:56;;;;;;;;;;;;;;;;;;5024460;28;20082;-80
2022/04/19 00:10:22;;;;;;;;;;;;;;;;;;5046329;28;19952;-81
2022/04/19 00:12:48;;;;;;;;;;;;;;;;;;5026399;28;19960;-81
2022/04/19 00:15:18;;;;;;;;;;;;;;;;;;5059950;28;20389;-81
2022/04/19 00:17:44;;;;;;;;;;;;;;;;;;5034420;28;19953;-81
2022/04/19 00:20:10;;;;;;;;;;;;;;;;;;5017505;28;19960;-81
2022/04/19 00:22:36;;;;;;;;;;;;;;;;;;5030199;28;20361;-80
2022/04/19 00:25:02;;;;;;;;;;;;;;;;;;5063094;28;19972;-80
2022/04/19 00:27:29;;;;;;;;;;;;;;;;;;5026537;28;20389;-81
2022/04/19 00:29:55;;;;;;;;;;;;;;;;;;5027563;28;19952;-81
2022/04/19 00:32:23;;;;;;;;;;;;;;;;;;5028535;28;20356;-82
2022/04/19 00:34:49;;;;;;;;;;;;;;;;;;5039793;28;19959;-81
2022/04/19 00:37:16;;;;;;;;;;;;;;;;;;5034500;28;19967;-81
2022/04/19 00:39:42;;;;;;;;;;;;;;;;;;5032067;28;19952;-81
2022/04/19 00:42:08;;;;;;;;;;;;;;;;;;5054702;28;20684;-81
2022/04/19 00:44:37;;;;;;;;;;;;;;;;;;5038124;28;20162;-80
2022/04/19 00:47:05;;;;;;;;;;;;;;;;;;5027326;28;19967;-81
2022/04/19 00:49:33;;;;;;;;;;;;;;;;;;5034327;28;20324;-81
2022/04/19 00:51:59;;;;;;;;;;;;;;;;;;5026385;28;19949;-80
2022/04/19 00:54:26;;;;;;;;;;;;;;;;;;5026852;28;20015;-81
2022/04/19 00:56:53;;;;;;;;;;;;;;;;;;5067972;28;19968;-82
2022/04/19 00:59:20;;;;;;;;;;;;;;;;;;5027507;28;19960;-80
2022/04/19 01:01:46;;;;;;;;;;;;;;;;;;5025401;28;20429;-81
2022/04/19 01:04:12;;;;;;;;;;;;;;;;;;5018489;28;19957;-81
2022/04/19 01:06:39;;;;;;;;;;;;;;;;;;5033726;28;20411;-81
2022/04/19 01:09:05;;;;;;;;;;;;;;;;;;5030507;28;20450;-81
2022/04/19 01:14:16;;;;;;;;;;;;;;;;;;5021452;28;20386;-81
2022/04/19 01:16:42;;;;;;;;;;;;;;;;;;5006085;28;20006;-81
2022/04/19 01:19:08;;;;;;;;;;;;;;;;;;5022014;28;20023;-81
2022/04/19 01:21:34;;;;;;;;;;;;;;;;;;5030356;28;19971;-81
2022/04/19 01:24:00;;;;;;;;;;;;;;;;;;5025117;28;20010;-81
2022/04/19 01:26:27;;;;;;;;;;;;;;;;;;5058733;28;20424;-81
2022/04/19 01:28:53;;;;;;;;;;;;;;;;;;5027877;28;19948;-80
2022/04/19 01:31:19;;;;;;;;;;;;;;;;;;5036259;28;19944;-82
2022/04/19 01:33:45;;;;;;;;;;;;;;;;;;5027899;28;19960;-80
2022/04/19 01:36:12;;;;;;;;;;;;;;;;;;5018274;28;19925;-80
2022/04/19 01:38:38;;;;;;;;;;;;;;;;;;5064191;28;20014;-81
2022/04/19 01:41:04;;;;;;;;;;;;;;;;;;5024675;28;19960;-80
2022/04/19 01:43:31;;;;;;;;;;;;;;;;;;5031943;28;20388;-81
2022/04/19 01:45:57;;;;;;;;;;;;;;;;;;5032726;28;19952;-80
2022/04/19 01:48:23;;;;;;;;;;;;;;;;;;5021985;28;20060;-80
2022/04/19 01:50:49;;;;;;;;;;;;;;;;;;5016683;28;20115;-80
2022/04/19 01:53:15;;;;;;;;;;;;;;;;;;5035489;28;19956;-80
2022/04/19 01:55:42;;;;;;;;;;;;;;;;;;5023757;28;19961;-80
2022/04/19 01:58:09;;;;;;;;;;;;;;;;;;5022541;28;19963;-80
2022/04/19 02:00:35;;;;;;;;;;;;;;;;;;5027012;28;20391;-80
2022/04/19 02:03:03;;;;;;;;;;;;;;;;;;5023178;28;19945;-80
2022/04/19 02:05:29;;;;;;;;;;;;;;;;;;5024606;28;19948;-80
2022/04/19 02:07:55;;;;;;;;;;;;;;;;;;5018319;28;20385;-80
2022/04/19 02:10:21;;;;;;;;;;;;;;;;;;5054906;28;20015;-81
2022/04/19 02:12:49;;;;;;;;;;;;;;;;;;5023370;28;19952;-81
2022/04/19 02:15:15;;;;;;;;;;;;;;;;;;5011163;28;19948;-79
2022/04/19 02:17:42;;;;;;;;;;;;;;;;;;5059092;28;20399;-82
2022/04/19 02:20:08;;;;;;;;;;;;;;;;;;5030699;28;19948;-81
2022/04/19 02:22:34;;;;;;;;;;;;;;;;;;5026868;28;19961;-81
2022/04/19 02:25:00;;;;;;;;;;;;;;;;;;5025112;28;19964;-81
2022/04/19 02:27:26;;;;;;;;;;;;;;;;;;5029560;28;19960;-81
2022/04/19 02:29:54;;;;;;;;;;;;;;;;;;5021935;28;19976;-81
2022/04/19 02:32:23;;;;;;;;;;;;;;;;;;5033550;28;19997;-81
2022/04/19 02:34:49;;;;;;;;;;;;;;;;;;5029853;28;19987;-80
2022/04/19 02:37:16;;;;;;;;;;;;;;;;;;5038340;28;20448;-81
2022/04/19 02:39:42;;;;;;;;;;;;;;;;;;5034284;28;19960;-81
2022/04/19 02:42:08;;;;;;;;;;;;;;;;;;5024882;28;19960;-82
2022/04/19 02:44:35;;;;;;;;;;;;;;;;;;5025246;28;19926;-81
2022/04/19 02:47:02;;;;;;;;;;;;;;;;;;5025976;28;19975;-81
2022/04/19 02:49:28;;;;;;;;;;;;;;;;;;5018268;28;19968;-81
2022/04/19 02:51:55;;;;;;;;;;;;;;;;;;5026729;28;19978;-79
2022/04/19 02:54:21;;;;;;;;;;;;;;;;;;5061529;28;19953;-80
2022/04/19 02:56:50;;;;;;;;;;;;;;;;;;5031317;28;19953;-79
2022/04/19 02:59:16;;;;;;;;;;;;;;;;;;5039783;28;20803;-79
2022/04/19 03:01:42;;;;;;;;;;;;;;;;;;5043958;28;19953;-79
2022/04/19 03:04:09;;;;;;;;;;;;;;;;;;5047590;28;19960;-79
2022/04/19 03:06:35;;;;;;;;;;;;;;;;;;5054698;28;19970;-80
2022/04/19 03:09:02;;;;;;;;;;;;;;;;;;5047339;28;19952;-80
2022/04/19 03:11:28;;;;;;;;;;;;;;;;;;5052503;28;19948;-82
2022/04/19 03:13:54;;;;;;;;;;;;;;;;;;5050999;28;20697;-79
2022/04/19 03:16:21;;;;;;;;;;;;;;;;;;5020378;28;20021;-80
2022/04/19 03:18:47;;;;;;;;;;;;;;;;;;5035393;28;19952;-81
2022/04/19 03:21:13;;;;;;;;;;;;;;;;;;5042244;28;20370;-81
2022/04/19 03:29:09;;;;;;;;;;;;;;;;;;5040166;28;19956;-80
2022/04/19 03:31:35;;;;;;;;;;;;;;;;;;5036141;28;19963;-81
2022/04/19 03:34:02;;;;;;;;;;;;;;;;;;5055847;28;19979;-81
2022/04/19 03:36:29;;;;;;;;;;;;;;;;;;5044798;28;19925;-81
2022/04/19 03:38:55;;;;;;;;;;;;;;;;;;5039436;28;20453;-80
2022/04/19 03:41:21;;;;;;;;;;;;;;;;;;5039427;28;19978;-81
2022/04/19 03:43:47;;;;;;;;;;;;;;;;;;5036822;28;19944;-81
2022/04/19 03:46:13;;;;;;;;;;;;;;;;;;5041741;28;20013;-81
2022/04/19 03:48:40;;;;;;;;;;;;;;;;;;5038362;28;19952;-81
2022/04/19 03:51:06;;;;;;;;;;;;;;;;;;5037386;28;19951;-82
2022/04/19 03:53:32;;;;;;;;;;;;;;;;;;5046011;28;19917;-81
2022/04/19 03:55:58;;;;;;;;;;;;;;;;;;5057188;28;19986;-81
2022/04/19 03:58:25;;;;;;;;;;;;;;;;;;5052591;28;20360;-81
2022/04/19 04:00:51;;;;;;;;;;;;;;;;;;5058243;28;19921;-81
2022/04/19 04:03:17;;;;;;;;;;;;;;;;;;5049006;28;20358;-81
2022/04/19 04:05:44;;;;;;;;;;;;;;;;;;5056113;28;19951;-81
2022/04/19 04:08:10;;;;;;;;;;;;;;;;;;5048720;28;19970;-81
2022/04/19 04:10:36;;;;;;;;;;;;;;;;;;5046952;28;20359;-81
2022/04/19 04:13:04;;;;;;;;;;;;;;;;;;5037686;28;19948;-81
2022/04/19 04:15:30;;;;;;;;;;;;;;;;;;5043462;28;20488;-81
2022/04/19 04:17:56;;;;;;;;;;;;;;;;;;5056067;28;19956;-81
2022/04/19 04:20:22;;;;;;;;;;;;;;;;;;5054393;28;19949;-82
2022/04/19 04:22:48;;;;;;;;;;;;;;;;;;5046403;28;19949;-82
2022/04/19 04:25:14;;;;;;;;;;;;;;;;;;5032116;28;19968;-82
2022/04/19 04:27:41;;;;;;;;;;;;;;;;;;5047175;28;20012;-80
2022/04/19 04:30:07;;;;;;;;;;;;;;;;;;5045747;28;20250;-79
2022/04/19 04:32:33;;;;;;;;;;;;;;;;;;5015575;28;19997;-80
2022/04/19 04:34:59;;;;;;;;;;;;;;;;;;5039817;28;19916;-80
2022/04/19 04:37:25;;;;;;;;;;;;;;;;;;5046995;28;19971;-81
2022/04/19 04:39:52;;;;;;;;;;;;;;;;;;5043524;28;19998;-80
2022/04/19 04:42:18;;;;;;;;;;;;;;;;;;5052948;28;20426;-81
2022/04/19 04:44:44;;;;;;;;;;;;;;;;;;5056377;28;19952;-81
2022/04/19 04:49:55;;;;;;;;;;;;;;;;;;5045191;28;19956;-82
2022/04/19 04:52:22;;;;;;;;;;;;;;;;;;5048134;28;19949;-82
2022/04/19 04:54:48;;;;;;;;;;;;;;;;;;5039067;28;19953;-81
2022/04/19 04:57:14;;;;;;;;;;;;;;;;;;5064221;28;19933;-83
2022/04/19 04:59:40;;;;;;;;;;;;;;;;;;5031656;28;20393;-81
2022/04/19 05:02:07;;;;;;;;;;;;;;;;;;5042646;28;19975;-81
2022/04/19 05:04:33;;;;;;;;;;;;;;;;;;5019531;28;19922;-82
2022/04/19 05:06:59;;;;;;;;;;;;;;;;;;5048278;28;19956;-82
2022/04/19 05:09:25;;;;;;;;;;;;;;;;;;5052253;28;19963;-81
2022/04/19 05:11:52;;;;;;;;;;;;;;;;;;5037547;28;20334;-83
2022/04/19 05:14:19;;;;;;;;;;;;;;;;;;5049404;28;19947;-81
2022/04/19 05:16:45;;;;;;;;;;;;;;;;;;5060425;28;20350;-81
2022/04/19 05:19:11;;;;;;;;;;;;;;;;;;5056969;28;19952;-82
2022/04/19 05:21:37;;;;;;;;;;;;;;;;;;5059570;28;19939;-81
2022/04/19 05:24:03;;;;;;;;;;;;;;;;;;5051757;28;19917;-80
2022/04/19 05:26:30;;;;;;;;;;;;;;;;;;5064287;28;19940;-82
2022/04/19 05:28:57;;;;;;;;;;;;;;;;;;5034954;28;19970;-79
2022/04/19 05:31:23;;;;;;;;;;;;;;;;;;5050344;28;19984;-82
2022/04/19 05:33:50;;;;;;;;;;;;;;;;;;5047654;28;19952;-80
2022/04/19 05:36:16;;;;;;;;;;;;;;;;;;5051243;28;20042;-81
2022/04/19 05:38:42;;;;;;;;;;;;;;;;;;5050819;28;19957;-80
2022/04/19 05:41:09;;;;;;;;;;;;;;;;;;5052734;28;19952;-82
2022/04/19 05:43:35;;;;;;;;;;;;;;;;;;5049518;28;19963;-81
2022/04/19 05:46:02;;;;;;;;;;;;;;;;;;5047740;28;19963;-81
2022/04/19 05:48:28;;;;;;;;;;;;;;;;;;5047496;28;19967;-81
2022/04/19 05:50:54;;;;;;;;;;;;;;;;;;5029159;28;19964;-82
2022/04/19 05:53:20;;;;;;;;;;;;;;;;;;5061590;28;19944;-80
2022/04/19 05:55:46;;;;;;;;;;;;;;;;;;5055907;28;19957;-81
2022/04/19 05:58:13;;;;;;;;;;;;;;;;;;5045625;28;19957;-81
2022/04/19 06:00:39;;;;;;;;;;;;;;;;;;5054530;28;19941;-81
2022/04/19 06:05:50;;;;;;;;;;;;;;;;;;5036528;28;19949;-80
2022/04/19 06:08:16;;;;;;;;;;;;;;;;;;5036393;28;20004;-82
2022/04/19 06:10:42;;;;;;;;;;;;;;;;;;5032701;28;19956;-81
2022/04/19 06:13:09;;;;;;;;;;;;;;;;;;5034531;28;19918;-82
2022/04/19 06:15:37;;;;;;;;;;;;;;;;;;5035988;28;19999;-82
2022/04/19 06:18:04;;;;;;;;;;;;;;;;;;5042843;28;19966;-82
2022/04/19 06:20:30;;;;;;;;;;;;;;;;;;5040268;28;20442;-82
2022/04/19 06:22:56;;;;;;;;;;;;;;;;;;5038640;28;19991;-82
2022/04/19 06:25:22;;;;;;;;;;;;;;;;;;5035301;28;19972;-82
2022/04/19 06:27:49;;;;;;;;;;;;;;;;;;5035423;28;19941;-82
2022/04/19 06:30:15;;;;;;;;;;;;;;;;;;5035497;28;20592;-82
2022/04/19 06:32:42;;;;;;;;;;;;;;;;;;5036638;28;19956;-82
2022/04/19 06:35:08;;;;;;;;;;;;;;;;;;5054498;28;20647;-81
2022/04/19 06:37:35;;;;;;;;;;;;;;;;;;5035408;28;19967;-82
2022/04/19 06:40:01;;;;;;;;;;;;;;;;;;5030802;28;19960;-82
2022/04/19 06:42:28;;;;;;;;;;;;;;;;;;5037409;28;20510;-82
2022/04/19 06:44:54;;;;;;;;;;;;;;;;;;5038568;28;19956;-81
2022/04/19 06:47:20;;;;;;;;;;;;;;;;;;5060903;28;19949;-83
2022/04/19 06:49:46;;;;;;;;;;;;;;;;;;5072930;28;19960;-83
2022/04/19 06:52:12;;;;;;;;;;;;;;;;;;5046290;28;19955;-83
2022/04/19 06:54:39;;;;;;;;;;;;;;;;;;5061383;28;19940;-80
2022/04/19 06:57:05;;;;;;;;;;;;;;;;;;5036681;28;20624;-83
2022/04/19 06:59:31;;;;;;;;;;;;;;;;;;5043099;28;19964;-81
2022/04/19 07:01:58;;;;;;;;;;;;;;;;;;5067427;28;20042;-81
2022/04/19 07:04:24;;;;;;;;;;;;;;;;;;5052503;28;19951;-83
2022/04/19 07:06:50;;;;;;;;;;;;;;;;;;5061311;28;19948;-80
2022/04/19 07:09:17;;;;;;;;;;;;;;;;;;5039175;28;19962;-82
2022/04/19 07:11:44;;;;;;;;;;;;;;;;;;5057757;28;19948;-82
2022/04/19 07:14:10;;;;;;;;;;;;;;;;;;5066884;28;19956;-83
2022/04/19 07:16:36;;;;;;;;;;;;;;;;;;5045086;28;19960;-83
2022/04/19 07:19:02;;;;;;;;;;;;;;;;;;5062888;28;19952;-82
2022/04/19 07:27:00;;;;;;;;;;;;;;;;;;5042618;28;20373;-82
2022/04/19 07:29:26;;;;;;;;;;;;;;;;;;5053142;28;19925;-82
2022/04/19 07:31:52;;;;;;;;;;;;;;;;;;5043188;28;19952;-84
2022/04/19 07:34:18;;;;;;;;;;;;;;;;;;5039866;28;20046;-83
2022/04/19 07:36:45;;;;;;;;;;;;;;;;;;5026223;28;20411;-82
2022/04/19 07:39:11;;;;;;;;;;;;;;;;;;5032133;28;19972;-82
2022/04/19 07:41:37;;;;;;;;;;;;;;;;;;5043766;28;19979;-82
2022/04/19 07:44:04;;;;;;;;;;;;;;;;;;5031419;28;19958;-82
2022/04/19 07:46:30;;;;;;;;;;;;;;;;;;5031109;28;20689;-82
2022/04/19 07:48:57;;;;;;;;;;;;;;;;;;5034950;28;19948;-81
2022/04/19 07:51:23;;;;;;;;;;;;;;;;;;5033959;28;19960;-82
2022/04/19 07:53:50;;;;;;;;;;;;;;;;;;5034000;28;19988;-82
2022/04/19 07:56:16;;;;;;;;;;;;;;;;;;5033013;28;20325;-81
2022/04/19 07:58:47;;;;;;;;;;;;;;;;;;5034708;28;19948;-83
2022/04/19 08:01:13;;;;;;;;;;;;;;;;;;5027009;28;19924;-81
2022/04/19 08:03:40;;;;;;;;;;;;;;;;;;5051475;28;19918;-81
2022/04/19 08:06:06;;;;;;;;;;;;;;;;;;5034541;28;19929;-82
2022/04/19 08:08:32;;;;;;;;;;;;;;;;;;5031519;28;19959;-82
2022/04/19 08:10:58;;;;;;;;;;;;;;;;;;5025826;28;20392;-82
2022/04/19 08:13:24;;;;;;;;;;;;;;;;;;5061621;28;19956;-83
2022/04/19 08:15:54;;;;;;;;;;;;;;;;;;5041786;28;20512;-81
2022/04/19 08:18:21;;;;;;;;;;;;;;;;;;5024280;28;19968;-83
2022/04/19 08:20:47;;;;;;;;;;;;;;;;;;5021851;28;20007;-83
2022/04/19 08:23:14;;;;;;;;;;;;;;;;;;5017537;28;19960;-82
2022/04/19 08:25:40;;;;;;;;;;;;;;;;;;5051246;28;20064;-81
2022/04/19 08:28:06;;;;;;;;;;;;;;;;;;5019933;28;19952;-82
2022/04/19 08:30:33;;;;;;;;;;;;;;;;;;5028791;28;19965;-81
2022/04/19 08:32:59;;;;;;;;;;;;;;;;;;5051591;28;19926;-81
2022/04/19 08:35:25;;;;;;;;;;;;;;;;;;5016496;28;19937;-82
2022/04/19 08:37:51;;;;;;;;;;;;;;;;;;5029868;28;19960;-81
2022/04/19 08:40:18;;;;;;;;;;;;;;;;;;5015355;28;19971;-81
2022/04/19 08:42:44;;;;;;;;;;;;;;;;;;5026798;28;19945;-82
2022/04/19 08:45:10;;;;;;;;;;;;;;;;;;5029622;28;20424;-81
2022/04/19 08:47:36;;;;;;;;;;;;;;;;;;5028438;28;19929;-81
2022/04/19 08:50:02;;;;;;;;;;;;;;;;;;5035162;28;19960;-81
2022/04/19 08:52:29;;;;;;;;;;;;;;;;;;5030793;28;19940;-82
2022/04/19 08:57:40;;;;;;;;;;;;;;;;;;5027655;28;19968;-81
2022/04/19 09:00:06;;;;;;;;;;;;;;;;;;5039347;28;19952;-81
2022/04/19 09:02:32;;;;;;;;;;;;;;;;;;5031964;28;20431;-82
2022/04/19 09:04:59;;;;;;;;;;;;;;;;;;5056655;28;19957;-82
2022/04/19 09:07:25;;;;;;;;;;;;;;;;;;5057347;28;20403;-82
2022/04/19 09:09:51;;;;;;;;;;;;;;;;;;5063664;28;19968;-81
2022/04/19 09:12:18;;;;;;;;;;;;;;;;;;5020233;28;19951;-81
2022/04/19 09:14:45;;;;;;;;;;;;;;;;;;5031722;28;19940;-82
2022/04/19 09:17:11;;;;;;;;;;;;;;;;;;5060692;28;19956;-82
2022/04/19 09:19:38;;;;;;;;;;;;;;;;;;5028413;28;19949;-81
2022/04/19 09:22:05;;;;;;;;;;;;;;;;;;5028775;28;20033;-82
2022/04/19 09:24:31;;;;;;;;;;;;;;;;;;5022646;28;19968;-81
2022/04/19 09:26:58;;;;;;;;;;;;;;;;;;5024057;28;19957;-82
2022/04/19 09:29:24;;;;;;;;;;;;;;;;;;5028251;28;19963;-82
2022/04/19 09:31:50;;;;;;;;;;;;;;;;;;5063829;28;19949;-82
2022/04/19 09:34:16;;;;;;;;;;;;;;;;;;5021461;28;20468;-82
2022/04/19 09:36:42;;;;;;;;;;;;;;;;;;5067835;28;19986;-83
2022/04/19 09:39:08;;;;;;;;;;;;;;;;;;5053570;28;20426;-82
2022/04/19 09:41:35;;;;;;;;;;;;;;;;;;5053090;28;20113;-83
2022/04/19 09:44:01;;;;;;;;;;;;;;;;;;5059361;28;20386;-83
2022/04/19 09:46:28;;;;;;;;;;;;;;;;;;5048389;28;19959;-82
2022/04/19 09:48:54;;;;;;;;;;;;;;;;;;5025888;28;19945;-82
2022/04/19 09:51:21;;;;;;;;;;;;;;;;;;5030605;28;20362;-82
2022/04/19 09:53:47;;;;;;;;;;;;;;;;;;5059310;28;19949;-82
2022/04/19 09:56:13;;;;;;;;;;;;;;;;;;5048098;28;19921;-82
2022/04/19 09:58:39;;;;;;;;;;;;;;;;;;5035574;28;19925;-82
2022/04/19 10:01:06;;;;;;;;;;;;;;;;;;5028372;28;20014;-80
2022/04/19 10:09:02;;;;;;;;;;;;;;;;;;5032161;28;19972;-81
2022/04/19 10:11:28;;;;;;;;;;;;;;;;;;5033169;28;19913;-82
2022/04/19 10:13:54;;;;;;;;;;;;;;;;;;5012546;28;20681;-82
2022/04/19 10:16:21;;;;;;;;;;;;;;;;;;5023262;28;19965;-82
2022/04/19 10:18:47;;;;;;;;;;;;;;;;;;5020593;28;19967;-82
2022/04/19 10:21:13;;;;;;;;;;;;;;;;;;5057492;28;19960;-81
2022/04/19 10:23:39;;;;;;;;;;;;;;;;;;5022450;28;19961;-81
2022/04/19 10:26:06;;;;;;;;;;;;;;;;;;5023062;28;19995;-82
2022/04/19 10:28:33;;;;;;;;;;;;;;;;;;5021303;28;19914;-81
2022/04/19 10:30:59;;;;;;;;;;;;;;;;;;5024183;28;20417;-80
2022/04/19 10:33:25;;;;;;;;;;;;;;;;;;5023000;28;19948;-81
2022/04/19 10:35:52;;;;;;;;;;;;;;;;;;5030124;28;19959;-80
2022/04/19 10:38:18;;;;;;;;;;;;;;;;;;5036708;28;19960;-81
2022/04/19 10:40:44;;;;;;;;;;;;;;;;;;5075552;28;19959;-82
2022/04/19 10:43:12;;;;;;;;;;;;;;;;;;5033999;28;20557;-81
2022/04/19 10:45:38;;;;;;;;;;;;;;;;;;5037415;28;19948;-82
2022/04/19 10:48:05;;;;;;;;;;;;;;;;;;5031522;28;19964;-82
2022/04/19 10:50:34;;;;;;;;;;;;;;;;;;5034911;28;20430;-81
2022/04/19 10:53:03;;;;;;;;;;;;;;;;;;5057108;28;19913;-81
2022/04/19 10:55:29;;;;;;;;;;;;;;;;;;5050808;28;19964;-81
2022/04/19 11:00:40;;;;;;;;;;;;;;;;;;5042035;28;20455;-81
2022/04/19 11:03:06;;;;;;;;;;;;;;;;;;5041477;28;19952;-81
2022/04/19 11:05:32;;;;;;;;;;;;;;;;;;5027102;28;19980;-81
2022/04/19 11:07:58;;;;;;;;;;;;;;;;;;5027670;28;19921;-82
2022/04/19 11:10:25;;;;;;;;;;;;;;;;;;5029301;28;20391;-82
2022/04/19 11:12:51;;;;;;;;;;;;;;;;;;5067606;28;19979;-79
2022/04/19 11:15:17;;;;;;;;;;;;;;;;;;5061513;28;20419;-83
2022/04/19 11:17:43;;;;;;;;;;;;;;;;;;5020793;28;19969;-82
2022/04/19 11:20:10;;;;;;;;;;;;;;;;;;5033153;28;19921;-83
2022/04/19 11:22:38;;;;;;;;;;;;;;;;;;5039643;28;20424;-82
2022/04/19 11:25:04;;;;;;;;;;;;;;;;;;5061826;28;19968;-82
2022/04/19 11:27:30;;;;;;;;;;;;;;;;;;5035932;28;19964;-82
2022/04/19 11:29:57;;;;;;;;;;;;;;;;;;5041294;28;19973;-80
2022/04/19 11:32:23;;;;;;;;;;;;;;;;;;5035845;28;19949;-82
2022/04/19 11:34:49;;;;;;;;;;;;;;;;;;5032393;28;19964;-81
2022/04/19 11:37:15;;;;;;;;;;;;;;;;;;5031163;28;19956;-82
2022/04/19 11:47:56;;;;;;;;;;;;;;;;;;5024208;28;19960;-81
2022/04/19 11:50:23;;;;;;;;;;;;;;;;;;5058452;28;19913;-82
2022/04/19 11:52:50;;;;;;;;;;;;;;;;;;5034510;28;19920;-82
2022/04/19 11:55:16;;;;;;;;;;;;;;;;;;5061902;28;19956;-81
2022/04/19 11:57:43;;;;;;;;;;;;;;;;;;5030846;28;19953;-82
2022/04/19 12:00:09;;;;;;;;;;;;;;;;;;5064436;28;19921;-82
2022/04/19 12:02:35;;;;;;;;;;;;;;;;;;5023566;28;20403;-82
2022/04/19 12:05:03;;;;;;;;;;;;;;;;;;5013247;28;19959;-83
2022/04/19 12:07:29;;;;;;;;;;;;;;;;;;5024425;28;19948;-83
2022/04/19 12:09:55;;;;;;;;;;;;;;;;;;5019940;28;19956;-83
2022/04/19 12:12:21;;;;;;;;;;;;;;;;;;5024590;28;19995;-83
2022/04/19 12:14:47;;;;;;;;;;;;;;;;;;5019823;28;19998;-83
2022/04/19 12:17:13;;;;;;;;;;;;;;;;;;5053896;28;19952;-83
2022/04/19 12:19:40;;;;;;;;;;;;;;;;;;5027080;28;19957;-83
2022/04/19 12:22:06;;;;;;;;;;;;;;;;;;5054541;28;19961;-83
2022/04/19 12:24:32;;;;;;;;;;;;;;;;;;5059745;28;19956;-82
2022/04/19 12:26:58;;;;;;;;;;;;;;;;;;5019219;28;19956;-82
2022/04/19 12:29:25;;;;;;;;;;;;;;;;;;5037440;28;19967;-83
2022/04/19 12:31:52;;;;;;;;;;;;;;;;;;5056417;28;19975;-84
2022/04/19 12:34:18;;;;;;;;;;;;;;;;;;5017497;28;20278;-82
2022/04/19 12:36:44;;;;;;;;;;;;;;;;;;5035240;28;20377;-84
2022/04/19 12:39:10;;;;;;;;;;;;;;;;;;5031581;28;20018;-84
2022/04/19 12:41:36;;;;;;;;;;;;;;;;;;5057852;28;19952;-83
2022/04/19 12:44:03;;;;;;;;;;;;;;;;;;5057147;28;20350;-83
2022/04/19 12:46:30;;;;;;;;;;;;;;;;;;5027409;28;19957;-81
2022/04/19 12:48:57;;;;;;;;;;;;;;;;;;5017740;28;19988;-82
2022/04/19 12:51:26;;;;;;;;;;;;;;;;;;5019650;28;19956;-83
2022/04/19 12:53:52;;;;;;;;;;;;;;;;;;5018596;28;20370;-82
2022/04/19 12:59:06;;;;;;;;;;;;;;;;;;5030641;28;20633;-82
2022/04/19 13:01:36;;;;;;;;;;;;;;;;;;5027876;28;19936;-83
2022/04/19 13:04:02;;;;;;;;;;;;;;;;;;4986808;28;19914;-83
2022/04/19 13:12:33;;;;;;;;;;;;;;;;;;4994300;28;19921;-83
2022/04/19 13:15:04;;;;;;;;;;;;;;;;;;5053623;28;19929;-83
2022/04/19 13:17:33;;;;;;;;;;;;;;;;;;5018327;28;19991;-80
2022/04/19 13:19:59;;;;;;;;;;;;;;;;;;5015884;28;19949;-82
2022/04/19 13:22:25;;;;;;;;;;;;;;;;;;5053237;28;19945;-81
2022/04/19 13:24:52;;;;;;;;;;;;;;;;;;5033544;28;19975;-80
2022/04/19 13:27:18;;;;;;;;;;;;;;;;;;5030599;28;20281;-82
2022/04/19 13:29:44;;;;;;;;;;;;;;;;;;5046881;28;20043;-82
2022/04/19 13:32:12;;;;;;;;;;;;;;;;;;5010074;28;21529;-84
2022/04/19 13:34:38;;;;;;;;;;;;;;;;;;5015635;28;20458;-81
2022/04/19 13:37:04;;;;;;;;;;;;;;;;;;5020700;28;19921;-83
2022/04/19 13:39:31;;;;;;;;;;;;;;;;;;5012617;28;19921;-82
2022/04/19 13:41:57;;;;;;;;;;;;;;;;;;5031406;28;19948;-80
2022/04/19 13:44:23;;;;;;;;;;;;;;;;;;5062212;28;19960;-82
2022/04/19 13:46:51;;;;;;;;;;;;;;;;;;5028767;28;19948;-83
2022/04/19 13:49:17;;;;;;;;;;;;;;;;;;5058882;28;19960;-82
2022/04/19 13:51:43;;;;;;;;;;;;;;;;;;5063723;28;19948;-83
2022/04/19 13:54:10;;;;;;;;;;;;;;;;;;5031865;28;19963;-82
2022/04/19 13:56:37;;;;;;;;;;;;;;;;;;5058307;28;20462;-82
2022/04/19 13:59:03;;;;;;;;;;;;;;;;;;5008242;28;19980;-84
2022/04/19 14:01:31;;;;;;;;;;;;;;;;;;5019780;28;19921;-82
2022/04/19 14:03:57;;;;;;;;;;;;;;;;;;5048450;28;20002;-80
2022/04/19 14:06:23;;;;;;;;;;;;;;;;;;5051729;28;19959;-82
2022/04/19 14:08:49;;;;;;;;;;;;;;;;;;5019832;28;19940;-82
2022/04/19 14:11:15;;;;;;;;;;;;;;;;;;5019683;28;19953;-81
2022/04/19 14:13:42;;;;;;;;;;;;;;;;;;5018545;28;19945;-82
2022/04/19 14:16:08;;;;;;;;;;;;;;;;;;5017876;28;19961;-82
2022/04/19 14:18:34;;;;;;;;;;;;;;;;;;5026220;28;19961;-82
2022/04/19 14:21:00;;;;;;;;;;;;;;;;;;5015156;28;20036;-82
2022/04/19 14:23:27;;;;;;;;;;;;;;;;;;5028889;28;19957;-82
2022/04/19 14:25:53;;;;;;;;;;;;;;;;;;5021992;28;19968;-83
2022/04/19 14:28:21;;;;;;;;;;;;;;;;;;5016399;28;19961;-83
2022/04/19 14:33:39;;;;;;;;;;;;;;;;;;5002862;28;20512;-83
2022/04/19 14:36:05;;;;;;;;;;;;;;;;;;5013124;28;20367;-82
2022/04/19 14:38:32;;;;;;;;;;;;;;;;;;5021629;28;20006;-83
2022/04/19 14:40:58;;;;;;;;;;;;;;;;;;5021860;28;19965;-81
2022/04/19 14:43:24;;;;;;;;;;;;;;;;;;5033078;28;19956;-83
2022/04/19 14:45:50;;;;;;;;;;;;;;;;;;5029009;28;19953;-83
2022/04/19 14:48:16;;;;;;;;;;;;;;;;;;5018769;28;20045;-82
2022/04/19 14:53:32;;;;;;;;;;;;;;;;;;5028371;28;20293;-84
2022/04/19 14:55:59;;;;;;;;;;;;;;;;;;5038608;28;19942;-85
2022/04/19 14:58:25;;;;;;;;;;;;;;;;;;5044802;28;20507;-84
2022/04/19 15:00:51;;;;;;;;;;;;;;;;;;5042294;28;19967;-85
2022/04/19 15:03:17;;;;;;;;;;;;;;;;;;5041436;28;20381;-85
2022/04/19 15:05:44;;;;;;;;;;;;;;;;;;5048642;28;20483;-83
2022/04/19 15:08:10;;;;;;;;;;;;;;;;;;5034771;28;19948;-83
2022/04/19 15:10:36;;;;;;;;;;;;;;;;;;5046398;28;19975;-82
2022/04/19 15:13:03;;;;;;;;;;;;;;;;;;5039065;28;19952;-83
2022/04/19 15:15:29;;;;;;;;;;;;;;;;;;5043549;28;20691;-84
2022/04/19 15:17:58;;;;;;;;;;;;;;;;;;5060076;28;20455;-84
2022/04/19 15:20:28;;;;;;;;;;;;;;;;;;5057127;28;19925;-87
2022/04/19 15:22:55;;;;;;;;;;;;;;;;;;5052294;28;19921;-84
2022/04/19 15:25:21;;;;;;;;;;;;;;;;;;5019918;28;20014;-85
2022/04/19 15:27:47;;;;;;;;;;;;;;;;;;5040693;28;19997;-84
2022/04/19 15:30:13;;;;;;;;;;;;;;;;;;5039952;28;19956;-84
2022/04/19 15:32:40;;;;;;;;;;;;;;;;;;5036913;28;19945;-85
2022/04/19 15:35:07;;;;;;;;;;;;;;;;;;5056904;28;20341;-84
2022/04/19 15:37:34;;;;;;;;;;;;;;;;;;5040254;28;19960;-84
2022/04/19 15:40:01;;;;;;;;;;;;;;;;;;5054084;28;19961;-87
2022/04/19 15:42:28;;;;;;;;;;;;;;;;;;5059344;28;19924;-85
2022/04/19 15:44:54;;;;;;;;;;;;;;;;;;5021556;28;19963;-84
2022/04/19 15:47:20;;;;;;;;;;;;;;;;;;5045803;28;19925;-84
2022/04/19 15:49:47;;;;;;;;;;;;;;;;;;5046572;28;19940;-84
2022/04/19 15:52:13;;;;;;;;;;;;;;;;;;5074150;28;19944;-83
2022/04/19 15:54:39;;;;;;;;;;;;;;;;;;5068698;28;20270;-83
2022/04/19 15:57:05;;;;;;;;;;;;;;;;;;5024788;28;19921;-83
2022/04/19 15:59:31;;;;;;;;;;;;;;;;;;5068576;28;20027;-84
2022/04/19 16:01:59;;;;;;;;;;;;;;;;;;5042411;28;20334;-84
2022/04/19 16:04:25;;;;;;;;;;;;;;;;;;5042401;28;20344;-83
2022/04/19 16:06:52;;;;;;;;;;;;;;;;;;5022572;28;19964;-82
2022/04/19 16:09:18;;;;;;;;;;;;;;;;;;5018285;28;21379;-82
2022/04/19 16:11:44;;;;;;;;;;;;;;;;;;5025147;28;19920;-83
2022/04/19 16:14:10;;;;;;;;;;;;;;;;;;5008289;28;20021;-82
2022/04/19 16:24:51;;;;;;;;;;;;;;;;;;5022107;28;19929;-83
2022/04/19 16:27:17;;;;;;;;;;;;;;;;;;5016097;28;19957;-83
2022/04/19 16:29:44;;;;;;;;;;;;;;;;;;5052770;28;20374;-84
2022/04/19 16:32:10;;;;;;;;;;;;;;;;;;5057545;28;19945;-84
2022/04/19 16:34:36;;;;;;;;;;;;;;;;;;5015444;28;19957;-84
2022/04/19 16:37:03;;;;;;;;;;;;;;;;;;5050035;28;19975;-84
2022/04/19 16:39:29;;;;;;;;;;;;;;;;;;5021092;28;19960;-84
2022/04/19 16:41:55;;;;;;;;;;;;;;;;;;5021915;28;19956;-84
2022/04/19 16:44:40;;;;;;;;;;;;;;;;;;5026994;28;19916;-83
2022/04/19 16:47:26;;;;;;;;;;;;;;;;;;5037979;28;19923;-83
2022/04/19 16:49:53;;;;;;;;;;;;;;;;;;5049601;28;20361;-84
2022/04/19 16:52:19;;;;;;;;;;;;;;;;;;5046622;28;19921;-82
2022/04/19 16:54:45;;;;;;;;;;;;;;;;;;5022075;28;19917;-83
2022/04/19 16:57:12;;;;;;;;;;;;;;;;;;5064146;28;20734;-84
2022/04/19 16:59:39;;;;;;;;;;;;;;;;;;5030302;28;20035;-83
2022/04/19 17:02:05;;;;;;;;;;;;;;;;;;5057533;28;20372;-83
2022/04/19 17:04:31;;;;;;;;;;;;;;;;;;5035719;28;19975;-83
2022/04/19 17:07:18;;;;;;;;;;;;;;;;;;5044564;28;20368;-83
2022/04/19 17:10:04;;;;;;;;;;;;;;;;;;5048125;28;19932;-83
2022/04/19 17:12:48;;;;;;;;;;;;;;;;;;5024325;28;19940;-82
2022/04/19 17:15:19;;;;;;;;;;;;;;;;;;5032010;28;19916;-83
2022/04/19 17:17:55;;;;;;;;;;;;;;;;;;5057870;28;20012;-84
2022/04/19 17:20:31;;;;;;;;;;;;;;;;;;5030868;28;19992;-84
2022/04/19 17:22:57;;;;;;;;;;;;;;;;;;5033247;28;19966;-85
2022/04/19 17:25:24;;;;;;;;;;;;;;;;;;5048319;28;19965;-83
2022/04/19 17:27:50;;;;;;;;;;;;;;;;;;5047007;28;20010;-84
2022/04/19 17:30:16;;;;;;;;;;;;;;;;;;5054636;28;19953;-88
2022/04/19 17:32:42;;;;;;;;;;;;;;;;;;5029459;28;19928;-89
2022/04/19 17:35:08;;;;;;;;;;;;;;;;;;5017788;28;19971;-85
2022/04/19 17:37:34;;;;;;;;;;;;;;;;;;5045435;28;19952;-85
2022/04/19 17:40:02;;;;;;;;;;;;;;;;;;5063413;28;19912;-86
2022/04/19 17:42:28;;;;;;;;;;;;;;;;;;5046141;28;20017;-87